createdAt,value
2019-04-27T00:00:14.706Z,7.97
2019-04-27T00:02:51.210Z,9.58
2019-04-27T00:05:32.035Z,8.23
2019-04-27T00:07:59.338Z,8.55
2019-04-27T00:10:29.897Z,8.55
2019-04-27T00:13:02.236Z,7.85
2019-04-27T00:15:47.602Z,7.28
2019-04-27T00:18:24.397Z,7.33
2019-04-27T00:20:58.074Z,8.05
2019-04-27T00:23:31.537Z,8.40
2019-04-27T00:26:00.593Z,6.55
2019-04-27T00:28:29.767Z,5.97
2019-04-27T00:30:59.049Z,9.00
2019-04-27T00:33:28.088Z,7.00
2019-04-27T00:35:58.767Z,7.10
2019-04-27T00:38:29.440Z,7.05
2019-04-27T00:41:00.145Z,7.42
2019-04-27T00:43:29.173Z,5.92
2019-04-27T00:45:58.209Z,6.65
2019-04-27T00:48:27.239Z,6.78
2019-04-27T00:50:56.275Z,6.75
2019-04-27T00:53:25.333Z,6.62
2019-04-27T00:56:08.227Z,6.67
2019-04-27T00:58:38.917Z,8.90
2019-04-27T01:01:12.733Z,7.35
2019-04-27T01:03:44.666Z,8.55
2019-04-27T01:06:14.901Z,9.80
2019-04-27T01:08:45.003Z,7.35
2019-04-27T01:11:14.177Z,8.53
2019-04-27T01:13:43.502Z,10.10
2019-04-27T01:16:15.624Z,9.65
2019-04-27T01:18:43.514Z,9.55
2019-04-27T01:21:12.808Z,9.25
2019-04-27T01:23:42.136Z,8.68
2019-04-27T01:26:18.670Z,8.73
2019-04-27T01:28:52.132Z,9.08
2019-04-27T01:31:22.449Z,9.00
2019-04-27T01:33:51.513Z,12.07
2019-04-27T01:36:20.555Z,9.55
2019-04-27T01:38:49.756Z,11.48
2019-04-27T01:41:19.302Z,11.68
2019-04-27T01:43:49.068Z,11.65
2019-04-27T01:46:19.581Z,12.25
2019-04-27T01:48:49.089Z,11.97
2019-04-27T01:51:20.772Z,13.45
2019-04-27T01:53:49.270Z,14.93
2019-04-27T01:56:19.476Z,12.10
2019-04-27T01:58:49.462Z,12.60
2019-04-27T02:01:23.884Z,12.03
2019-04-27T02:04:10.875Z,11.43
2019-04-27T02:06:40.070Z,11.12
2019-04-27T02:09:12.430Z,11.75
2019-04-27T02:11:41.503Z,11.05
2019-04-27T02:14:10.543Z,12.93
2019-04-27T02:16:39.660Z,12.53
2019-04-27T02:19:11.366Z,13.58
2019-04-27T02:21:39.639Z,13.08
2019-04-27T02:24:09.713Z,13.83
2019-04-27T02:26:39.871Z,13.48
2019-04-27T02:29:16.480Z,14.73
2019-04-27T02:32:05.561Z,12.07
2019-04-27T02:34:45.344Z,12.10
2019-04-27T02:37:14.424Z,14.15
2019-04-27T02:39:43.489Z,15.83
2019-04-27T02:42:12.782Z,14.30
2019-04-27T02:44:41.998Z,14.25
2019-04-27T02:47:11.072Z,15.80
2019-04-27T02:49:40.791Z,14.30
2019-04-27T02:52:11.704Z,15.83
2019-04-27T02:54:40.749Z,12.58
2019-04-27T02:57:10.334Z,15.72
2019-04-27T02:59:40.005Z,16.10
2019-04-27T03:02:10.974Z,18.07
2019-04-27T03:04:40.279Z,16.25
2019-04-27T03:07:11.491Z,16.97
2019-04-27T03:09:40.280Z,18.00
2019-04-27T03:12:10.211Z,20.08
2019-04-27T03:14:52.905Z,18.98
2019-04-27T03:17:23.618Z,19.98
2019-04-27T03:20:00.151Z,19.45
2019-04-27T03:22:33.367Z,19.07
2019-04-27T03:25:11.673Z,21.02
2019-04-27T03:27:45.539Z,20.20
2019-04-27T03:30:15.926Z,20.15
2019-04-27T03:32:45.033Z,19.85
2019-04-27T03:35:14.308Z,20.92
2019-04-27T03:37:44.256Z,20.40
2019-04-27T03:40:13.715Z,18.98
2019-04-27T03:42:44.649Z,20.50
2019-04-27T03:45:14.058Z,20.30
2019-04-27T03:47:43.248Z,19.10
2019-04-27T03:50:14.181Z,19.17
2019-04-27T03:53:00.179Z,19.20
2019-04-27T03:55:30.951Z,19.12
2019-04-27T03:58:13.593Z,19.55
2019-04-27T04:00:42.678Z,19.98
2019-04-27T04:03:11.860Z,22.05
2019-04-27T04:05:40.916Z,19.42
2019-04-27T04:08:10.765Z,21.48
2019-04-27T04:10:59.610Z,20.02
2019-04-27T04:13:36.474Z,18.62
2019-04-27T04:16:10.871Z,21.12
2019-04-27T04:18:56.701Z,18.73
2019-04-27T04:21:26.026Z,19.67
2019-04-27T04:23:55.065Z,19.57
2019-04-27T04:26:24.211Z,19.42
2019-04-27T04:28:53.256Z,18.77
2019-04-27T04:31:22.541Z,22.40
2019-04-27T04:33:51.678Z,19.90
2019-04-27T04:36:20.987Z,20.80
2019-04-27T04:38:50.575Z,17.85
2019-04-27T04:41:43.026Z,19.02
2019-04-27T04:44:26.678Z,20.55
2019-04-27T04:47:03.121Z,18.82
2019-04-27T04:49:32.258Z,20.23
2019-04-27T04:52:01.396Z,18.52
2019-04-27T04:54:30.449Z,17.75
2019-04-27T04:56:59.626Z,18.40
2019-04-27T04:59:29.158Z,18.32
2019-04-27T05:02:01.858Z,19.67
2019-04-27T05:04:29.272Z,18.95
2019-04-27T05:06:59.196Z,17.77
2019-04-27T05:09:29.539Z,19.52
2019-04-27T05:11:58.890Z,17.95
2019-04-27T05:14:28.823Z,17.73
2019-04-27T05:16:59.224Z,19.48
2019-04-27T05:19:29.746Z,17.90
2019-04-27T05:21:59.283Z,18.27
2019-04-27T05:24:29.302Z,16.82
2019-04-27T05:26:59.062Z,17.35
2019-04-27T05:29:29.324Z,17.85
2019-04-27T05:31:59.236Z,17.37
2019-04-27T05:34:29.473Z,18.90
2019-04-27T05:36:59.311Z,16.52
2019-04-27T05:39:29.962Z,20.27
2019-04-27T05:41:59.666Z,19.65
2019-04-27T05:44:41.405Z,16.05
2019-04-27T05:47:11.719Z,18.35
2019-04-27T05:49:44.564Z,17.30
2019-04-27T05:52:29.338Z,16.37
2019-04-27T05:54:59.981Z,15.78
2019-04-27T05:57:31.402Z,17.23
2019-04-27T06:00:02.345Z,16.80
2019-04-27T06:02:30.866Z,16.67
2019-04-27T06:05:00.295Z,16.27
2019-04-27T06:07:29.857Z,17.40
2019-04-27T06:09:59.794Z,17.12
2019-04-27T06:12:29.831Z,17.07
2019-04-27T06:14:59.946Z,19.05
2019-04-27T06:17:30.003Z,17.45
2019-04-27T06:19:59.749Z,18.15
2019-04-27T06:22:29.415Z,20.75
2019-04-27T06:25:00.109Z,16.23
2019-04-27T06:27:30.555Z,17.23
2019-04-27T06:30:00.059Z,17.73
2019-04-27T06:32:29.725Z,17.65
2019-04-27T06:34:59.311Z,18.42
2019-04-27T06:37:29.336Z,18.50
2019-04-27T06:39:59.705Z,16.95
2019-04-27T06:42:29.813Z,17.45
2019-04-27T06:44:59.922Z,17.85
2019-04-27T06:47:29.732Z,17.87
2019-04-27T06:49:58.924Z,17.57
2019-04-27T06:52:29.226Z,16.75
2019-04-27T06:55:00.434Z,16.73
2019-04-27T06:57:29.302Z,16.97
2019-04-27T06:59:59.198Z,18.60
2019-04-27T07:02:29.147Z,17.75
2019-04-27T07:04:59.232Z,16.95
2019-04-27T07:07:29.426Z,16.30
2019-04-27T07:09:59.286Z,17.52
2019-04-27T07:12:28.915Z,16.15
2019-04-27T07:14:59.182Z,19.25
2019-04-27T07:17:29.105Z,19.50
2019-04-27T07:19:59.462Z,17.05
2019-04-27T07:22:29.822Z,18.07
2019-04-27T07:24:59.219Z,18.30
2019-04-27T07:27:29.198Z,17.50
2019-04-27T07:29:59.556Z,18.75
2019-04-27T07:32:29.280Z,16.93
2019-04-27T07:34:58.674Z,17.95
2019-04-27T07:37:29.396Z,18.20
2019-04-27T07:39:59.134Z,17.35
2019-04-27T07:42:31.026Z,17.02
2019-04-27T07:45:06.655Z,16.17
2019-04-27T07:47:35.728Z,15.85
2019-04-27T07:50:05.819Z,14.68
2019-04-27T07:52:37.799Z,16.02
2019-04-27T07:55:06.174Z,15.48
2019-04-27T07:57:35.247Z,15.60
2019-04-27T08:00:06.771Z,16.40
2019-04-27T08:02:35.809Z,18.12
2019-04-27T08:05:05.801Z,18.32
2019-04-27T08:07:34.871Z,15.05
2019-04-27T08:10:04.675Z,15.38
2019-04-27T08:12:33.737Z,14.68
2019-04-27T08:15:02.822Z,14.35
2019-04-27T08:17:31.889Z,14.58
2019-04-27T08:20:00.951Z,15.50
2019-04-27T08:22:30.035Z,13.68
2019-04-27T08:24:59.547Z,13.10
2019-04-27T08:27:30.488Z,14.47
2019-04-27T08:30:07.087Z,14.35
2019-04-27T08:32:41.567Z,14.73
2019-04-27T08:35:11.213Z,13.70
2019-04-27T08:37:40.247Z,13.18
2019-04-27T08:40:09.874Z,14.05
2019-04-27T08:42:39.228Z,12.20
2019-04-27T08:45:09.496Z,11.85
2019-04-27T08:47:39.416Z,12.70
2019-04-27T08:50:09.967Z,12.07
2019-04-27T08:52:41.359Z,12.53
2019-04-27T08:55:10.545Z,11.65
2019-04-27T08:57:39.588Z,12.93
2019-04-27T09:00:09.624Z,11.20
2019-04-27T09:02:46.823Z,12.55
2019-04-27T09:05:09.828Z,11.88
2019-04-27T09:07:56.747Z,12.80
2019-04-27T09:10:28.874Z,11.28
2019-04-27T09:13:05.680Z,10.35
2019-04-27T09:15:39.336Z,11.38
2019-04-27T09:18:09.086Z,9.98
2019-04-27T09:20:42.954Z,10.82
2019-04-27T09:23:12.005Z,11.10
2019-04-27T09:25:41.054Z,9.08
2019-04-27T09:28:10.148Z,11.60
2019-04-27T09:30:39.500Z,12.18
2019-04-27T09:33:08.646Z,11.03
2019-04-27T09:35:37.781Z,11.38
2019-04-27T09:38:07.157Z,10.32
2019-04-27T09:40:36.277Z,10.95
2019-04-27T09:43:07.394Z,13.15
2019-04-27T09:45:37.177Z,11.40
2019-04-27T09:48:06.743Z,11.73
2019-04-27T09:50:36.214Z,10.35
2019-04-27T09:53:06.359Z,11.25
2019-04-27T09:55:36.898Z,8.90
2019-04-27T09:58:06.057Z,11.50
2019-04-27T10:00:36.464Z,8.58
2019-04-27T10:03:06.614Z,9.15
2019-04-27T10:05:36.770Z,9.78
2019-04-27T10:08:06.307Z,9.90
2019-04-27T10:10:37.138Z,9.80
2019-04-27T10:13:07.011Z,8.45
2019-04-27T10:15:36.311Z,9.13
2019-04-27T10:18:06.125Z,10.00
2019-04-27T10:20:40.384Z,10.93
2019-04-27T10:23:06.390Z,10.90
2019-04-27T10:25:37.478Z,10.93
2019-04-27T10:28:06.940Z,9.43
2019-04-27T10:30:36.102Z,12.28
2019-04-27T10:33:07.747Z,9.95
2019-04-27T10:35:36.425Z,11.83
2019-04-27T10:38:05.554Z,11.48
2019-04-27T10:40:34.597Z,11.00
2019-04-27T10:43:03.648Z,9.83
2019-04-27T10:45:32.688Z,9.88
2019-04-27T10:48:01.824Z,10.30
2019-04-27T10:50:30.878Z,8.48
2019-04-27T10:52:59.936Z,12.05
2019-04-27T10:55:28.998Z,7.35
2019-04-27T10:57:58.059Z,10.00
2019-04-27T11:00:28.880Z,7.67
2019-04-27T11:02:58.423Z,7.35
2019-04-27T11:05:31.254Z,7.10
2019-04-27T11:08:00.737Z,8.78
2019-04-27T11:10:29.798Z,7.97
2019-04-27T11:12:59.108Z,7.78
2019-04-27T11:15:28.535Z,7.12
2019-04-27T11:17:57.592Z,7.05
2019-04-27T11:20:27.788Z,8.15
2019-04-27T11:23:07.205Z,7.50
2019-04-27T11:25:27.822Z,6.55
2019-04-27T11:27:57.881Z,9.60
2019-04-27T11:30:27.241Z,8.05
2019-04-27T11:32:58.850Z,5.25
2019-04-27T11:35:37.129Z,5.42
2019-04-27T11:38:06.417Z,6.10
2019-04-27T11:40:36.456Z,5.60
2019-04-27T11:43:06.289Z,8.05
2019-04-27T11:45:36.725Z,5.45
2019-04-27T11:48:06.058Z,8.48
2019-04-27T11:50:35.747Z,5.08
2019-04-27T11:53:06.173Z,6.35
2019-04-27T11:55:35.549Z,4.40
2019-04-27T11:58:06.430Z,6.47
2019-04-27T12:00:36.476Z,4.62
2019-04-27T12:03:06.732Z,5.03
2019-04-27T12:05:36.555Z,3.98
2019-04-27T12:08:06.292Z,3.22
2019-04-27T12:10:36.298Z,4.62
2019-04-27T12:13:07.639Z,9.20
2019-04-27T12:15:36.379Z,2.27
2019-04-27T12:18:08.899Z,2.77
2019-04-27T12:20:36.295Z,2.55
2019-04-27T12:23:06.528Z,3.62
2019-04-27T12:25:37.292Z,4.20
2019-04-27T12:28:27.219Z,4.47
2019-04-27T12:31:00.993Z,2.87
2019-04-27T12:33:30.094Z,4.97
2019-04-27T12:36:02.178Z,3.42
2019-04-27T12:38:31.476Z,1.25
2019-04-27T12:41:00.576Z,1.95
2019-04-27T12:43:29.607Z,0.75
2019-04-27T12:45:58.922Z,0.80
2019-04-27T12:48:27.956Z,2.67
2019-04-27T12:50:57.086Z,1.32
2019-04-27T12:53:48.052Z,0.93
2019-04-27T12:56:34.034Z,1.27
2019-04-27T12:59:04.711Z,0.80
2019-04-27T13:01:33.884Z,2.42
2019-04-27T13:04:02.972Z,0.80
2019-04-27T13:06:32.019Z,0.50
2019-04-27T13:09:01.073Z,2.27
2019-04-27T13:11:30.111Z,0.62
2019-04-27T13:13:59.150Z,1.20
2019-04-27T13:16:30.375Z,2.02
2019-04-27T13:18:59.030Z,1.60
2019-04-27T13:21:28.071Z,1.60
2019-04-27T13:24:04.118Z,1.22
2019-04-27T13:26:27.874Z,0.80
2019-04-27T13:28:58.327Z,0.90
2019-04-27T13:31:27.534Z,1.40
2019-04-27T13:33:56.588Z,1.65
2019-04-27T13:36:26.580Z,1.07
2019-04-27T13:38:56.050Z,1.32
2019-04-27T13:41:30.481Z,1.10
2019-04-27T13:43:57.516Z,2.40
2019-04-27T13:46:31.463Z,1.30
2019-04-27T13:49:18.082Z,1.22
2019-04-27T13:51:48.782Z,2.02
2019-04-27T13:54:25.506Z,1.07
2019-04-27T13:56:48.635Z,1.00
2019-04-27T13:59:17.695Z,0.75
2019-04-27T14:01:46.720Z,0.40
2019-04-27T14:04:15.764Z,0.95
2019-04-27T14:06:44.941Z,0.60
2019-04-27T14:09:13.987Z,1.17
2019-04-27T14:11:43.099Z,1.02
2019-04-27T14:14:12.153Z,2.55
2019-04-27T14:16:43.720Z,0.93
2019-04-27T14:19:11.962Z,0.78
2019-04-27T14:21:40.987Z,1.50
2019-04-27T14:24:10.046Z,0.78
2019-04-27T14:26:39.109Z,1.52
2019-04-27T14:29:08.708Z,1.40
2019-04-27T14:31:39.633Z,0.70
2019-04-27T14:34:09.213Z,1.05
2019-04-27T14:36:40.493Z,2.02
2019-04-27T14:39:10.820Z,2.02
2019-04-27T14:41:40.620Z,2.42
2019-04-27T14:44:10.704Z,1.40
2019-04-27T14:46:39.930Z,2.33
2019-04-27T14:49:08.652Z,3.37
2019-04-27T14:51:39.846Z,1.50
2019-04-27T14:54:09.241Z,1.55
2019-04-27T14:56:38.825Z,2.17
2019-04-27T14:59:07.799Z,1.97
2019-04-27T15:01:39.388Z,2.53
2019-04-27T15:04:07.040Z,2.17
2019-04-27T15:06:35.790Z,2.33
2019-04-27T15:09:06.774Z,2.03
2019-04-27T15:11:35.525Z,1.67
2019-04-27T15:14:04.628Z,2.00
2019-04-27T15:16:33.465Z,2.53
2019-04-27T15:19:20.530Z,2.90
2019-04-27T15:21:56.350Z,1.90
2019-04-27T15:24:20.681Z,2.17
2019-04-27T15:26:50.195Z,2.08
2019-04-27T15:29:25.277Z,1.92
2019-04-27T15:31:55.875Z,2.17
2019-04-27T15:34:41.847Z,4.27
2019-04-27T15:37:18.532Z,1.80
2019-04-27T15:40:10.006Z,4.20
2019-04-27T15:42:51.195Z,1.87
2019-04-27T15:45:15.834Z,1.72
2019-04-27T15:47:49.292Z,1.65
2019-04-27T15:50:15.863Z,2.20
2019-04-27T15:52:44.940Z,2.30
2019-04-27T15:55:31.438Z,2.40
2019-04-27T15:57:47.041Z,1.15
2019-04-27T16:00:20.960Z,2.87
2019-04-27T16:02:52.754Z,2.72
2019-04-27T16:05:23.570Z,1.30
2019-04-27T16:07:51.575Z,1.77
2019-04-27T16:10:20.805Z,1.67
2019-04-27T16:13:05.843Z,1.95
2019-04-27T16:15:20.773Z,1.40
2019-04-27T16:17:55.004Z,1.50
2019-04-27T16:20:29.068Z,1.47
2019-04-27T16:22:51.559Z,1.20
2019-04-27T16:25:23.627Z,1.92
2019-04-27T16:27:51.502Z,1.57
2019-04-27T16:30:20.821Z,2.55
2019-04-27T16:32:49.882Z,1.98
2019-04-27T16:35:22.966Z,3.22
2019-04-27T16:37:56.382Z,2.72
2019-04-27T16:40:25.699Z,2.35
2019-04-27T16:42:54.838Z,3.27
2019-04-27T16:45:27.157Z,3.50
2019-04-27T16:47:56.646Z,5.78
2019-04-27T16:50:26.939Z,4.08
2019-04-27T16:52:59.118Z,3.85
2019-04-27T16:55:27.965Z,2.83
2019-04-27T16:57:58.003Z,3.25
2019-04-27T17:00:30.317Z,2.90
2019-04-27T17:03:02.760Z,2.87
2019-04-27T17:05:34.318Z,2.55
2019-04-27T17:08:01.258Z,3.33
2019-04-27T17:10:30.429Z,2.62
2019-04-27T17:12:59.560Z,2.20
2019-04-27T17:15:36.361Z,2.22
2019-04-27T17:18:24.359Z,1.60
2019-04-27T17:20:59.314Z,1.65
2019-04-27T17:23:29.186Z,1.60
2019-04-27T17:26:05.999Z,1.40
2019-04-27T17:28:37.707Z,2.00
2019-04-27T17:31:05.162Z,1.30
2019-04-27T17:33:44.470Z,2.10
2019-04-27T17:36:16.379Z,2.30
2019-04-27T17:38:47.353Z,2.15
2019-04-27T17:41:14.160Z,2.15
2019-04-27T17:43:43.215Z,2.12
2019-04-27T17:46:13.151Z,2.70
2019-04-27T17:48:42.403Z,1.60
2019-04-27T17:51:11.492Z,2.10
2019-04-27T17:53:40.623Z,2.02
2019-04-27T17:56:09.671Z,2.27
2019-04-27T17:58:39.738Z,1.67
2019-04-27T18:01:13.921Z,2.37
2019-04-27T18:03:41.848Z,2.35
2019-04-27T18:06:12.694Z,3.90
2019-04-27T18:08:41.727Z,3.05
2019-04-27T18:11:10.788Z,2.45
2019-04-27T18:13:42.080Z,1.77
2019-04-27T18:16:10.634Z,1.82
2019-04-27T18:18:44.122Z,2.80
2019-04-27T18:21:13.646Z,2.37
2019-04-27T18:23:45.363Z,2.20
2019-04-27T18:26:19.642Z,1.90
2019-04-27T18:28:53.739Z,2.08
2019-04-27T18:31:21.039Z,2.08
2019-04-27T18:33:50.064Z,2.77
2019-04-27T18:36:19.132Z,2.22
2019-04-27T18:38:49.677Z,1.75
2019-04-27T18:41:18.965Z,1.65
2019-04-27T18:43:52.124Z,1.35
2019-04-27T18:46:22.184Z,1.55
2019-04-27T18:48:53.827Z,1.62
2019-04-27T18:51:25.129Z,1.25
2019-04-27T18:53:58.846Z,1.62
2019-04-27T18:56:44.471Z,1.40
2019-04-27T18:59:13.542Z,1.40
2019-04-27T19:01:42.583Z,1.77
2019-04-27T19:04:11.661Z,1.60
2019-04-27T19:06:40.707Z,1.05
2019-04-27T19:09:10.197Z,1.00
2019-04-27T19:11:53.046Z,1.40
2019-04-27T19:14:10.015Z,1.60
2019-04-27T19:16:39.066Z,1.90
2019-04-27T19:19:08.812Z,1.32
2019-04-27T19:21:39.217Z,1.52
2019-04-27T19:24:09.024Z,1.30
2019-04-27T19:26:39.990Z,1.77
2019-04-27T19:29:13.397Z,2.22
2019-04-27T19:31:50.148Z,1.77
2019-04-27T19:34:19.210Z,1.65
2019-04-27T19:36:48.829Z,1.80
2019-04-27T19:39:18.351Z,1.67
2019-04-27T19:41:59.450Z,1.87
2019-04-27T19:44:18.819Z,2.37
2019-04-27T19:46:49.336Z,2.47
2019-04-27T19:49:19.243Z,2.83
2019-04-27T19:51:48.586Z,1.82
2019-04-27T19:54:17.622Z,2.20
2019-04-27T19:56:46.686Z,2.87
2019-04-27T19:59:20.220Z,1.57
2019-04-27T20:01:51.050Z,1.62
2019-04-27T20:04:21.720Z,1.42
2019-04-27T20:06:50.779Z,1.32
2019-04-27T20:09:24.482Z,1.55
2019-04-27T20:11:53.527Z,1.20
2019-04-27T20:14:22.560Z,2.95
2019-04-27T20:16:52.023Z,1.60
2019-04-27T20:19:21.631Z,1.60
2019-04-27T20:21:50.936Z,1.82
2019-04-27T20:24:20.090Z,1.35
2019-04-27T20:26:49.128Z,0.85
2019-04-27T20:29:18.243Z,1.95
2019-04-27T20:31:47.324Z,2.12
2019-04-27T20:34:16.412Z,1.12
2019-04-27T20:36:45.470Z,1.27
2019-04-27T20:39:14.492Z,0.90
2019-04-27T20:41:43.563Z,1.87
2019-04-27T20:44:12.832Z,1.25
2019-04-27T20:46:41.924Z,0.90
2019-04-27T20:49:15.596Z,0.85
2019-04-27T20:51:51.084Z,1.67
2019-04-27T20:54:21.861Z,1.45
2019-04-27T20:56:53.219Z,1.10
2019-04-27T20:59:22.136Z,1.22
2019-04-27T21:01:51.301Z,1.60
2019-04-27T21:04:21.970Z,1.30
2019-04-27T21:06:58.381Z,1.55
2019-04-27T21:09:27.410Z,1.27
2019-04-27T21:11:56.474Z,2.33
2019-04-27T21:14:25.508Z,1.52
2019-04-27T21:16:54.621Z,1.60
2019-04-27T21:19:23.677Z,2.20
2019-04-27T21:21:52.711Z,1.60
2019-04-27T21:24:22.777Z,3.10
2019-04-27T21:26:58.962Z,3.55
2019-04-27T21:29:28.011Z,1.70
2019-04-27T21:31:57.078Z,1.90
2019-04-27T21:34:26.127Z,2.33
2019-04-27T21:36:55.215Z,1.72
2019-04-27T21:39:24.269Z,2.15
2019-04-27T21:41:53.301Z,2.25
2019-04-27T21:44:22.361Z,7.72
2019-04-27T21:46:51.878Z,5.90
2019-04-27T21:49:22.906Z,3.67
2019-04-27T21:52:02.347Z,2.20
2019-04-27T21:54:33.030Z,2.85
2019-04-27T21:57:02.488Z,3.67
2019-04-27T21:59:31.546Z,2.10
2019-04-27T22:02:02.413Z,2.52
2019-04-27T22:04:31.641Z,2.80
2019-04-27T22:07:01.463Z,2.60
2019-04-27T22:09:30.628Z,2.95
2019-04-27T22:12:00.633Z,1.95
2019-04-27T22:14:30.429Z,2.20
2019-04-27T22:17:00.855Z,2.12
2019-04-27T22:19:31.066Z,1.80
2019-04-27T22:22:01.927Z,2.00
2019-04-27T22:24:32.615Z,3.65
2019-04-27T22:27:01.667Z,2.27
2019-04-27T22:29:32.096Z,2.85
2019-04-27T22:32:01.728Z,2.20
2019-04-27T22:34:31.291Z,2.22
2019-04-27T22:37:00.965Z,2.65
2019-04-27T22:39:35.790Z,2.20
2019-04-27T22:42:09.242Z,2.52
2019-04-27T22:44:39.982Z,2.10
2019-04-27T22:47:09.034Z,2.47
2019-04-27T22:49:38.140Z,2.00
2019-04-27T22:52:07.276Z,2.12
2019-04-27T22:54:36.316Z,2.83
2019-04-27T22:57:07.031Z,2.20
2019-04-27T22:59:49.787Z,2.87
2019-04-27T23:02:21.755Z,2.87
2019-04-27T23:04:52.596Z,2.85
2019-04-27T23:07:21.629Z,2.60
2019-04-27T23:09:51.611Z,2.75
2019-04-27T23:12:21.199Z,3.05
2019-04-27T23:14:51.626Z,3.08
2019-04-27T23:17:25.249Z,3.17
2019-04-27T23:19:54.455Z,2.90
2019-04-27T23:22:23.523Z,2.60
2019-04-27T23:24:52.579Z,3.72
2019-04-27T23:27:21.712Z,3.33
2019-04-27T23:29:51.445Z,3.92
2019-04-27T23:32:38.469Z,3.52
2019-04-27T23:35:07.841Z,3.67
2019-04-27T23:37:36.883Z,3.10
2019-04-27T23:40:07.170Z,3.62
2019-04-27T23:42:36.279Z,3.80
2019-04-27T23:45:08.619Z,2.70
2019-04-27T23:47:38.241Z,2.40
2019-04-27T23:50:07.598Z,2.85
2019-04-27T23:52:54.623Z,2.75
2019-04-27T23:55:25.305Z,4.28
2019-04-27T23:57:54.341Z,3.40
